createdAt,value
2019-02-12T00:00:59.611Z,2.70
2019-02-12T00:03:28.575Z,2.80
2019-02-12T00:05:56.313Z,2.70
2019-02-12T00:08:24.247Z,2.80
2019-02-12T00:10:52.015Z,2.80
2019-02-12T00:13:19.915Z,2.80
2019-02-12T00:15:47.819Z,2.80
2019-02-12T00:18:15.603Z,2.80
2019-02-12T00:20:43.409Z,2.90
2019-02-12T00:23:11.305Z,2.90
2019-02-12T00:25:39.262Z,2.90
2019-02-12T00:28:07.083Z,2.90
2019-02-12T00:30:35.093Z,2.90
2019-02-12T00:33:03.124Z,2.80
2019-02-12T00:35:31.010Z,2.90
2019-02-12T00:37:59.132Z,3.00
2019-02-12T00:40:26.878Z,3.00
2019-02-12T00:42:54.701Z,3.10
2019-02-12T00:45:22.546Z,3.20
2019-02-12T00:47:50.456Z,3.30
2019-02-12T00:50:20.438Z,3.30
2019-02-12T00:52:48.253Z,3.30
2019-02-12T00:55:16.108Z,3.30
2019-02-12T00:57:43.938Z,3.30
2019-02-12T01:00:13.323Z,3.30
2019-02-12T01:02:41.227Z,3.30
2019-02-12T01:05:09.227Z,3.30
2019-02-12T01:07:37.017Z,3.30
2019-02-12T01:10:06.274Z,3.20
2019-02-12T01:12:35.858Z,3.20
2019-02-12T01:15:04.988Z,3.30
2019-02-12T01:17:34.329Z,3.20
2019-02-12T01:20:02.122Z,3.30
2019-02-12T01:22:31.480Z,3.20
2019-02-12T01:24:59.374Z,3.20
2019-02-12T01:27:27.142Z,3.10
2019-02-12T01:29:55.079Z,3.10
2019-02-12T01:32:23.058Z,3.20
2019-02-12T01:34:50.798Z,3.30
2019-02-12T01:37:18.610Z,3.30
2019-02-12T01:39:46.319Z,3.40
2019-02-12T01:42:14.100Z,3.30
2019-02-12T01:44:41.798Z,3.30
2019-02-12T01:47:09.571Z,3.20
2019-02-12T01:49:37.278Z,3.10
2019-02-12T01:52:05.061Z,3.10
2019-02-12T01:54:33.022Z,3.10
2019-02-12T01:57:00.829Z,3.10
2019-02-12T01:59:30.929Z,3.20
2019-02-12T02:01:58.799Z,3.20
2019-02-12T02:04:26.510Z,3.20
2019-02-12T02:06:54.279Z,3.30
2019-02-12T02:09:21.982Z,3.20
2019-02-12T02:11:49.847Z,3.20
2019-02-12T02:14:17.628Z,3.20
2019-02-12T02:16:46.406Z,3.10
2019-02-12T02:19:14.232Z,3.10
2019-02-12T02:21:44.071Z,3.10
2019-02-12T02:24:14.053Z,3.20
2019-02-12T02:26:41.786Z,3.20
2019-02-12T02:29:09.687Z,3.10
2019-02-12T02:31:37.408Z,3.10
2019-02-12T02:34:05.251Z,3.10
2019-02-12T02:36:32.977Z,3.00
2019-02-12T02:39:00.972Z,2.90
2019-02-12T02:41:29.383Z,3.00
2019-02-12T02:43:57.203Z,3.00
2019-02-12T02:46:25.058Z,3.10
2019-02-12T02:48:52.945Z,3.10
2019-02-12T02:51:20.806Z,3.20
2019-02-12T02:53:48.790Z,3.30
2019-02-12T02:56:16.583Z,3.20
2019-02-12T02:58:44.411Z,3.30
2019-02-12T03:01:12.074Z,3.30
2019-02-12T03:03:39.915Z,3.30
2019-02-12T03:06:07.596Z,3.20
2019-02-12T03:08:35.287Z,3.20
2019-02-12T03:11:02.955Z,3.10
2019-02-12T03:13:32.608Z,3.10
2019-02-12T03:16:00.345Z,3.00
2019-02-12T03:18:28.072Z,2.90
2019-02-12T03:20:55.859Z,3.00
2019-02-12T03:23:23.681Z,3.10
2019-02-12T03:25:51.466Z,3.20
2019-02-12T03:28:19.296Z,3.10
2019-02-12T03:30:47.129Z,3.10
2019-02-12T03:33:14.964Z,3.20
2019-02-12T03:35:42.758Z,3.20
2019-02-12T03:38:10.489Z,3.10
2019-02-12T03:40:38.301Z,3.20
2019-02-12T03:43:06.247Z,3.20
2019-02-12T03:45:34.143Z,3.20
2019-02-12T03:48:01.870Z,3.20
2019-02-12T03:50:29.765Z,3.20
2019-02-12T03:52:57.486Z,3.10
2019-02-12T03:55:25.160Z,3.20
2019-02-12T03:57:52.949Z,3.20
2019-02-12T04:00:20.675Z,3.30
2019-02-12T04:03:00.115Z,3.30
2019-02-12T04:05:29.646Z,3.20
2019-02-12T04:07:57.675Z,3.10
2019-02-12T04:10:25.537Z,3.10
2019-02-12T04:12:53.337Z,3.10
2019-02-12T04:15:21.172Z,3.10
2019-02-12T04:17:48.934Z,3.10
2019-02-12T04:20:16.625Z,3.10
2019-02-12T04:22:44.378Z,3.10
2019-02-12T04:25:12.253Z,3.10
2019-02-12T04:27:40.021Z,3.20
2019-02-12T04:30:07.822Z,3.20
2019-02-12T04:32:35.696Z,3.20
2019-02-12T04:35:03.500Z,3.20
2019-02-12T04:37:31.407Z,3.20
2019-02-12T04:39:59.114Z,3.20
2019-02-12T04:42:26.885Z,3.30
2019-02-12T04:44:54.580Z,3.30
2019-02-12T04:47:22.406Z,3.30
2019-02-12T04:49:50.090Z,3.30
2019-02-12T04:52:17.959Z,3.30
2019-02-12T04:54:45.668Z,3.30
2019-02-12T04:57:13.489Z,3.40
2019-02-12T04:59:41.206Z,3.40
2019-02-12T05:02:09.075Z,3.40
2019-02-12T05:04:36.770Z,3.40
2019-02-12T05:07:04.459Z,3.40
2019-02-12T05:09:33.421Z,3.40
2019-02-12T05:12:04.592Z,3.40
2019-02-12T05:14:32.575Z,3.50
2019-02-12T05:17:00.374Z,3.60
2019-02-12T05:19:30.416Z,3.50
2019-02-12T05:21:58.095Z,3.40
2019-02-12T05:24:25.847Z,3.40
2019-02-12T05:26:53.914Z,3.40
2019-02-12T05:29:21.647Z,3.40
2019-02-12T05:31:49.551Z,3.30
2019-02-12T05:34:17.428Z,3.30
2019-02-12T05:36:45.199Z,3.30
2019-02-12T05:39:13.021Z,3.30
2019-02-12T05:41:40.799Z,3.40
2019-02-12T05:44:08.842Z,3.40
2019-02-12T05:46:36.587Z,3.40
2019-02-12T05:49:04.426Z,3.40
2019-02-12T05:51:32.155Z,3.30
2019-02-12T05:54:00.201Z,3.40
2019-02-12T05:56:28.345Z,3.30
2019-02-12T05:58:56.362Z,3.20
2019-02-12T06:01:24.294Z,3.20
2019-02-12T06:03:52.251Z,3.20
2019-02-12T06:06:20.146Z,3.20
2019-02-12T06:08:47.940Z,3.20
2019-02-12T06:11:15.885Z,3.20
2019-02-12T06:13:43.765Z,3.30
2019-02-12T06:16:11.748Z,3.50
2019-02-12T06:18:39.473Z,3.50
2019-02-12T06:21:08.295Z,3.50
2019-02-12T06:23:36.042Z,3.40
2019-02-12T06:26:04.020Z,3.40
2019-02-12T06:28:31.816Z,3.50
2019-02-12T06:31:01.550Z,3.50
2019-02-12T06:33:29.641Z,3.50
2019-02-12T06:35:57.427Z,3.50
2019-02-12T06:38:25.170Z,3.50
2019-02-12T06:40:53.019Z,3.50
2019-02-12T06:43:20.834Z,3.50
2019-02-12T06:45:48.642Z,3.40
2019-02-12T06:48:16.522Z,3.40
2019-02-12T06:50:44.326Z,3.40
2019-02-12T06:53:12.885Z,3.30
2019-02-12T06:55:41.043Z,3.20
2019-02-12T06:58:08.990Z,3.20
2019-02-12T07:00:38.615Z,3.10
2019-02-12T07:03:10.994Z,3.20
2019-02-12T07:05:53.371Z,3.10
2019-02-12T07:09:13.710Z,3.10
2019-02-12T07:12:40.180Z,3.10
2019-02-12T07:15:17.539Z,3.10
2019-02-12T07:18:12.128Z,3.20
2019-02-12T07:21:29.185Z,3.30
2019-02-12T07:24:52.895Z,3.30
2019-02-12T07:28:10.477Z,3.30
2019-02-12T07:31:20.993Z,3.30
2019-02-12T07:34:12.226Z,3.30
2019-02-12T07:37:15.854Z,3.50
2019-02-12T07:39:59.538Z,3.40
2019-02-12T07:43:02.745Z,3.50
2019-02-12T07:46:25.734Z,3.50
2019-02-12T07:49:42.814Z,3.60
2019-02-12T07:52:50.649Z,3.50
2019-02-12T07:56:06.942Z,3.50
2019-02-12T07:59:11.298Z,3.50
2019-02-12T08:02:17.439Z,3.50
2019-02-12T08:05:27.854Z,3.60
2019-02-12T08:08:46.975Z,3.50
2019-02-12T08:11:25.321Z,3.60
2019-02-12T08:14:29.441Z,3.60
2019-02-12T08:17:20.803Z,3.70
2019-02-12T08:20:39.079Z,3.70
2019-02-12T08:23:41.320Z,3.70
2019-02-12T08:26:57.262Z,3.70
2019-02-12T08:29:55.619Z,3.80
2019-02-12T08:32:51.099Z,3.70
2019-02-12T08:35:34.943Z,3.80
2019-02-12T08:38:31.456Z,3.90
2019-02-12T08:41:39.962Z,4.00
2019-02-12T08:44:36.672Z,4.00
2019-02-12T08:47:59.435Z,4.10
2019-02-12T08:51:22.574Z,4.10
2019-02-12T08:54:29.714Z,4.00
2019-02-12T08:57:43.973Z,4.00
2019-02-12T09:00:36.801Z,3.90
2019-02-12T09:03:43.400Z,3.90
2019-02-12T09:06:22.960Z,4.00
2019-02-12T09:09:20.451Z,4.00
2019-02-12T09:12:15.912Z,4.00
2019-02-12T09:15:08.161Z,4.10
2019-02-12T09:17:59.811Z,4.00
2019-02-12T09:20:47.393Z,4.00
2019-02-12T09:24:03.519Z,4.10
2019-02-12T09:26:52.786Z,4.00
2019-02-12T09:30:00.321Z,4.20
2019-02-12T09:33:36.034Z,4.20
2019-02-12T09:36:35.273Z,4.30
2019-02-12T09:39:42.534Z,4.40
2019-02-12T09:42:44.542Z,4.50
2019-02-12T09:45:55.916Z,4.50
2019-02-12T09:48:43.180Z,4.60
2019-02-12T09:51:22.470Z,4.60
2019-02-12T09:54:16.882Z,4.60
2019-02-12T09:57:24.868Z,4.60
2019-02-12T10:00:23.622Z,4.80
2019-02-12T10:03:40.301Z,4.80
2019-02-12T10:07:09.817Z,4.80
2019-02-12T10:10:15.811Z,4.90
2019-02-12T10:13:13.892Z,5.00
2019-02-12T10:16:36.227Z,4.90
2019-02-12T10:19:30.581Z,5.10
2019-02-12T10:22:44.622Z,5.20
2019-02-12T10:25:26.922Z,5.30
2019-02-12T10:31:16.669Z,5.40
2019-02-12T10:33:44.621Z,5.50
2019-02-12T10:36:12.760Z,5.40
2019-02-12T10:38:40.480Z,5.40
2019-02-12T10:41:08.257Z,5.30
2019-02-12T10:43:35.913Z,5.10
2019-02-12T10:46:04.038Z,5.20
2019-02-12T10:48:31.715Z,5.20
2019-02-12T10:50:59.554Z,5.20
2019-02-12T10:53:27.286Z,5.30
2019-02-12T10:55:55.157Z,5.50
2019-02-12T10:58:23.027Z,5.50
2019-02-12T11:00:50.883Z,5.60
2019-02-12T11:03:18.676Z,5.70
2019-02-12T11:05:46.727Z,5.90
2019-02-12T11:08:14.447Z,6.00
2019-02-12T11:10:42.222Z,5.90
2019-02-12T11:13:09.923Z,5.90
2019-02-12T11:15:37.830Z,5.80
2019-02-12T11:18:05.517Z,5.70
2019-02-12T11:20:33.425Z,5.70
2019-02-12T11:23:01.313Z,5.70
2019-02-12T11:25:29.028Z,5.50
2019-02-12T11:27:56.766Z,5.30
2019-02-12T11:30:24.544Z,5.30
2019-02-12T11:32:52.597Z,5.30
2019-02-12T11:35:20.267Z,5.40
2019-02-12T11:37:48.165Z,5.30
2019-02-12T11:40:16.075Z,5.20
2019-02-12T11:42:43.951Z,5.20
2019-02-12T11:45:11.895Z,5.20
2019-02-12T11:47:40.275Z,5.30
2019-02-12T11:50:08.182Z,5.30
2019-02-12T11:52:36.544Z,5.40
2019-02-12T11:55:04.507Z,5.40
2019-02-12T11:57:33.886Z,5.40
2019-02-12T12:00:01.678Z,5.50
2019-02-12T12:02:33.068Z,5.50
2019-02-12T12:05:01.064Z,5.50
2019-02-12T12:07:28.898Z,5.50
2019-02-12T12:09:56.771Z,5.60
2019-02-12T12:12:24.643Z,5.60
2019-02-12T12:14:52.428Z,5.70
2019-02-12T12:17:20.221Z,5.70
2019-02-12T12:19:47.984Z,5.60
2019-02-12T12:22:15.781Z,5.50
2019-02-12T12:24:43.549Z,5.50
2019-02-12T12:27:11.322Z,5.50
2019-02-12T12:29:39.104Z,5.70
2019-02-12T12:32:06.786Z,5.90
2019-02-12T12:34:34.650Z,6.00
2019-02-12T12:37:02.441Z,6.10
2019-02-12T12:39:30.425Z,6.00
2019-02-12T12:41:58.121Z,6.00
2019-02-12T12:44:25.879Z,5.80
2019-02-12T12:46:53.607Z,5.90
2019-02-12T12:49:21.299Z,5.90
2019-02-12T12:51:49.015Z,5.90
2019-02-12T12:54:16.854Z,6.00
2019-02-12T12:56:44.555Z,5.90
2019-02-12T12:59:12.472Z,6.00
2019-02-12T13:01:40.398Z,6.10
2019-02-12T13:04:08.161Z,6.20
2019-02-12T13:06:36.036Z,6.20
2019-02-12T13:09:05.209Z,6.10
2019-02-12T13:11:32.985Z,6.20
2019-02-12T13:14:00.764Z,6.20
2019-02-12T13:16:28.628Z,6.30
2019-02-12T13:18:56.431Z,6.30
2019-02-12T13:21:24.221Z,6.30
2019-02-12T13:23:52.020Z,6.20
2019-02-12T13:26:19.891Z,6.10
2019-02-12T13:28:47.645Z,6.10
2019-02-12T13:31:15.563Z,6.10
2019-02-12T13:33:43.360Z,6.00
2019-02-12T13:36:11.257Z,6.00
2019-02-12T13:38:39.058Z,6.00
2019-02-12T13:41:06.874Z,6.10
2019-02-12T13:43:34.673Z,6.10
2019-02-12T13:46:02.535Z,6.00
2019-02-12T13:48:30.209Z,6.00
2019-02-12T13:50:58.012Z,6.10
2019-02-12T13:53:25.822Z,6.10
2019-02-12T13:55:53.597Z,6.10
2019-02-12T13:58:21.304Z,6.10
2019-02-12T14:00:49.179Z,6.20
2019-02-12T14:03:22.264Z,6.20
2019-02-12T14:05:46.682Z,6.20
2019-02-12T14:08:14.490Z,6.20
2019-02-12T14:10:42.311Z,6.20
2019-02-12T14:13:10.198Z,6.10
2019-02-12T14:15:38.004Z,6.10
2019-02-12T14:18:05.982Z,6.20
2019-02-12T14:20:33.848Z,6.20
2019-02-12T14:23:01.628Z,6.20
2019-02-12T14:25:29.445Z,6.30
2019-02-12T14:27:57.319Z,6.20
2019-02-12T14:30:25.038Z,6.10
2019-02-12T14:32:52.924Z,6.10
2019-02-12T14:35:20.610Z,6.10
2019-02-12T14:37:48.404Z,6.10
2019-02-12T14:40:16.291Z,6.00
2019-02-12T14:42:44.074Z,6.00
2019-02-12T14:45:12.097Z,6.00
2019-02-12T14:47:41.485Z,6.00
2019-02-12T14:50:10.381Z,5.90
2019-02-12T14:52:39.388Z,6.00
2019-02-12T14:55:07.307Z,6.00
2019-02-12T14:57:35.121Z,5.90
2019-02-12T15:00:03.486Z,5.90
2019-02-12T15:02:32.765Z,6.00
2019-02-12T15:05:00.998Z,6.10
2019-02-12T15:07:29.990Z,6.10
2019-02-12T15:09:57.769Z,6.20
2019-02-12T15:12:25.567Z,6.10
2019-02-12T15:14:53.378Z,6.00
2019-02-12T15:17:21.159Z,6.00
2019-02-12T15:19:49.023Z,5.90
2019-02-12T15:22:16.710Z,5.90
2019-02-12T15:24:45.779Z,6.00
2019-02-12T15:27:13.477Z,6.00
2019-02-12T15:29:41.182Z,6.00
2019-02-12T15:32:08.958Z,6.00
2019-02-12T15:34:36.938Z,6.00
2019-02-12T15:37:04.801Z,6.00
2019-02-12T15:39:32.761Z,5.90
2019-02-12T15:42:00.479Z,5.80
2019-02-12T15:44:28.236Z,5.80
2019-02-12T15:46:56.131Z,5.80
2019-02-12T15:49:23.989Z,5.90
2019-02-12T15:51:51.861Z,6.00
2019-02-12T15:54:19.684Z,6.00
2019-02-12T15:56:47.472Z,6.00
2019-02-12T15:59:16.362Z,6.00
2019-02-12T16:01:44.369Z,6.00
2019-02-12T16:04:12.273Z,6.00
2019-02-12T16:06:40.735Z,5.90
2019-02-12T16:09:09.801Z,5.90
2019-02-12T16:11:37.651Z,5.90
2019-02-12T16:14:09.245Z,5.90
2019-02-12T16:16:37.139Z,6.00
2019-02-12T16:19:06.220Z,6.00
2019-02-12T16:21:34.555Z,5.90
2019-02-12T16:24:02.351Z,6.00
2019-02-12T16:26:30.446Z,5.90
2019-02-12T16:28:58.249Z,5.80
2019-02-12T16:31:26.147Z,5.80
2019-02-12T16:33:54.081Z,5.70
2019-02-12T16:36:21.974Z,5.70
2019-02-12T16:38:49.794Z,5.70
2019-02-12T16:41:17.649Z,5.60
2019-02-12T16:43:45.447Z,5.60
2019-02-12T16:46:16.504Z,5.60
2019-02-12T16:48:45.634Z,5.50
2019-02-12T16:51:13.329Z,5.50
2019-02-12T16:53:41.989Z,5.50
2019-02-12T16:56:10.005Z,5.50
2019-02-12T16:58:37.967Z,5.60
2019-02-12T17:01:05.673Z,5.70
2019-02-12T17:03:33.717Z,5.70
2019-02-12T17:06:01.780Z,5.70
2019-02-12T17:08:30.149Z,5.70
2019-02-12T17:10:57.901Z,5.70
2019-02-12T17:13:25.705Z,5.80
2019-02-12T17:15:53.412Z,5.80
2019-02-12T17:18:21.295Z,5.90
2019-02-12T17:20:49.074Z,5.90
2019-02-12T17:23:16.956Z,5.90
2019-02-12T17:25:44.848Z,5.90
2019-02-12T17:28:12.753Z,5.90
2019-02-12T17:30:40.471Z,5.90
2019-02-12T17:33:08.310Z,5.90
2019-02-12T17:35:36.152Z,5.90
2019-02-12T17:38:04.311Z,6.00
2019-02-12T17:40:32.076Z,5.90
2019-02-12T17:42:59.955Z,5.70
2019-02-12T17:45:27.963Z,5.70
2019-02-12T17:47:55.713Z,5.60
2019-02-12T17:50:23.570Z,5.60
2019-02-12T17:52:51.266Z,5.60
2019-02-12T17:55:19.223Z,5.50
2019-02-12T17:57:46.968Z,5.40
2019-02-12T18:00:17.567Z,5.40
2019-02-12T18:02:46.925Z,5.40
2019-02-12T18:05:14.940Z,5.30
2019-02-12T18:07:42.655Z,5.10
2019-02-12T18:10:10.588Z,5.10
2019-02-12T18:12:38.283Z,5.00
2019-02-12T18:15:06.720Z,4.90
2019-02-12T18:17:36.132Z,5.00
2019-02-12T18:20:04.326Z,5.00
2019-02-12T18:22:33.662Z,5.10
2019-02-12T18:25:01.403Z,5.20
2019-02-12T18:27:30.506Z,5.30
2019-02-12T18:29:58.350Z,5.40
2019-02-12T18:32:26.288Z,5.40
2019-02-12T18:34:54.059Z,5.20
2019-02-12T18:37:21.941Z,5.20
2019-02-12T18:39:49.825Z,5.10
2019-02-12T18:42:17.697Z,5.20
2019-02-12T18:44:45.441Z,5.10
2019-02-12T18:47:13.297Z,5.00
2019-02-12T18:49:41.296Z,5.10
2019-02-12T18:52:09.165Z,5.00
2019-02-12T18:54:37.098Z,5.00
2019-02-12T18:57:05.043Z,5.10
2019-02-12T18:59:32.919Z,5.10
2019-02-12T19:02:00.951Z,5.10
2019-02-12T19:04:29.103Z,5.00
2019-02-12T19:06:56.990Z,5.00
2019-02-12T19:09:24.819Z,4.80
2019-02-12T19:11:54.542Z,4.70
2019-02-12T19:14:22.620Z,4.70
2019-02-12T19:16:50.425Z,4.60
2019-02-12T19:19:18.364Z,4.60
2019-02-12T19:21:46.209Z,4.70
2019-02-12T19:24:14.031Z,4.70
2019-02-12T19:26:49.613Z,4.70
2019-02-12T19:29:11.820Z,4.70
2019-02-12T19:31:39.605Z,4.60
2019-02-12T19:34:07.441Z,4.60
2019-02-12T19:36:35.381Z,4.60
2019-02-12T19:39:05.003Z,4.70
2019-02-12T19:41:32.920Z,4.70
2019-02-12T19:44:00.827Z,4.80
2019-02-12T19:46:28.605Z,4.90
2019-02-12T19:48:56.634Z,4.90
2019-02-12T19:51:24.442Z,4.80
2019-02-12T19:53:52.503Z,4.70
2019-02-12T19:56:21.372Z,4.70
2019-02-12T19:58:49.445Z,4.80
2019-02-12T20:01:17.223Z,4.70
2019-02-12T20:03:45.159Z,4.70
2019-02-12T20:06:13.011Z,4.80
2019-02-12T20:08:40.826Z,4.90
2019-02-12T20:11:08.865Z,5.00
2019-02-12T20:13:36.629Z,5.00
2019-02-12T20:16:04.401Z,5.00
2019-02-12T20:18:32.162Z,5.10
2019-02-12T20:21:00.086Z,5.00
2019-02-12T20:23:28.171Z,5.00
2019-02-12T20:25:55.993Z,4.90
2019-02-12T20:28:23.767Z,4.80
2019-02-12T20:30:51.696Z,4.60
2019-02-12T20:33:19.666Z,4.50
2019-02-12T20:35:47.569Z,4.40
2019-02-12T20:38:15.503Z,4.40
2019-02-12T20:40:43.419Z,4.30
2019-02-12T20:43:11.318Z,4.20
2019-02-12T20:45:39.126Z,4.20
2019-02-12T20:48:06.894Z,4.10
2019-02-12T20:50:34.719Z,4.10
2019-02-12T20:53:04.893Z,4.00
2019-02-12T20:55:32.801Z,4.00
2019-02-12T20:58:00.527Z,4.10
2019-02-12T21:00:28.296Z,4.10
2019-02-12T21:02:56.275Z,4.20
2019-02-12T21:05:24.415Z,4.20
2019-02-12T21:07:52.427Z,4.30
2019-02-12T21:10:20.459Z,4.30
2019-02-12T21:12:49.080Z,4.40
2019-02-12T21:15:18.253Z,4.50
2019-02-12T21:17:47.679Z,4.50
2019-02-12T21:20:15.721Z,4.60
2019-02-12T21:22:43.900Z,4.70
2019-02-12T21:25:11.951Z,4.70
2019-02-12T21:27:40.895Z,4.70
2019-02-12T21:30:11.217Z,4.60
2019-02-12T21:32:40.606Z,4.50
2019-02-12T21:35:08.625Z,4.50
2019-02-12T21:37:38.010Z,4.20
2019-02-12T21:40:08.723Z,4.00
2019-02-12T21:42:38.687Z,4.00
2019-02-12T21:45:07.211Z,4.00
2019-02-12T21:47:36.522Z,3.90
2019-02-12T21:50:05.061Z,3.90
2019-02-12T21:52:34.459Z,3.90
2019-02-12T21:55:02.194Z,4.10
2019-02-12T21:57:32.220Z,4.20
2019-02-12T22:00:00.102Z,4.30
2019-02-12T22:02:28.145Z,4.40
2019-02-12T22:04:56.172Z,4.40
2019-02-12T22:07:23.947Z,4.50
2019-02-12T22:09:51.828Z,4.50
2019-02-12T22:12:19.554Z,4.50
2019-02-12T22:14:47.324Z,4.50
2019-02-12T22:17:15.087Z,4.50
2019-02-12T22:19:42.865Z,4.50
2019-02-12T22:22:10.665Z,4.50
2019-02-12T22:24:38.553Z,4.50
2019-02-12T22:27:06.294Z,4.40
2019-02-12T22:29:35.979Z,4.40
2019-02-12T22:32:03.751Z,4.40
2019-02-12T22:34:31.545Z,4.50
2019-02-12T22:36:59.340Z,4.40
2019-02-12T22:39:27.034Z,4.40
2019-02-12T22:41:55.018Z,4.30
2019-02-12T22:44:22.841Z,4.20
2019-02-12T22:46:50.626Z,4.20
2019-02-12T22:49:18.522Z,4.20
2019-02-12T22:51:46.282Z,4.20
2019-02-12T22:54:14.110Z,4.20
2019-02-12T22:56:41.789Z,4.20
2019-02-12T22:59:09.481Z,4.10
2019-02-12T23:01:38.695Z,4.20
2019-02-12T23:04:06.740Z,4.10
2019-02-12T23:06:34.621Z,4.10
2019-02-12T23:09:04.380Z,4.10
2019-02-12T23:11:33.785Z,4.10
2019-02-12T23:14:01.549Z,4.00
2019-02-12T23:16:29.431Z,4.00
2019-02-12T23:18:57.302Z,3.90
2019-02-12T23:21:25.154Z,3.90
2019-02-12T23:23:52.841Z,3.90
2019-02-12T23:26:20.728Z,3.80
2019-02-12T23:28:48.390Z,3.80
2019-02-12T23:31:16.185Z,3.70
2019-02-12T23:33:43.965Z,3.70
2019-02-12T23:36:11.811Z,3.60
2019-02-12T23:38:39.489Z,3.60
2019-02-12T23:41:07.190Z,3.50
2019-02-12T23:43:35.178Z,3.30
2019-02-12T23:46:02.882Z,3.40
2019-02-12T23:48:30.675Z,3.20
2019-02-12T23:50:58.447Z,3.00
2019-02-12T23:53:26.269Z,3.10
2019-02-12T23:55:53.981Z,3.00
2019-02-12T23:58:21.844Z,3.10
